createdAt,value
2018-06-24T00:00:39.056Z,5.50
2018-06-24T00:03:07.306Z,7.23
2018-06-24T00:05:35.544Z,6.70
2018-06-24T00:08:03.916Z,7.73
2018-06-24T00:10:32.250Z,6.97
2018-06-24T00:13:00.501Z,8.77
2018-06-24T00:15:28.798Z,5.63
2018-06-24T00:17:57.020Z,5.10
2018-06-24T00:20:25.317Z,6.27
2018-06-24T00:22:53.560Z,5.60
2018-06-24T00:25:21.892Z,5.87
2018-06-24T00:27:50.166Z,6.30
2018-06-24T00:30:18.403Z,6.00
2018-06-24T00:32:46.627Z,4.73
2018-06-24T00:35:14.890Z,4.80
2018-06-24T00:37:43.159Z,6.23
2018-06-24T00:40:11.365Z,6.30
2018-06-24T00:42:39.628Z,5.93
2018-06-24T00:45:07.888Z,5.30
2018-06-24T00:47:36.147Z,5.60
2018-06-24T00:50:04.355Z,7.17
2018-06-24T00:52:32.609Z,4.73
2018-06-24T00:55:00.835Z,4.87
2018-06-24T00:57:29.054Z,6.10
2018-06-24T01:00:10.463Z,6.50
2018-06-24T01:02:39.155Z,6.70
2018-06-24T01:05:07.487Z,7.10
2018-06-24T01:07:35.717Z,5.80
2018-06-24T01:10:03.945Z,10.30
2018-06-24T01:12:32.244Z,7.60
2018-06-24T01:15:00.892Z,7.37
2018-06-24T01:17:29.337Z,6.47
2018-06-24T01:19:58.741Z,9.33
2018-06-24T01:22:27.500Z,6.23
2018-06-24T01:24:56.719Z,7.37
2018-06-24T01:27:25.027Z,5.83
2018-06-24T01:29:53.377Z,8.93
2018-06-24T01:32:22.388Z,7.87
2018-06-24T01:34:50.700Z,6.03
2018-06-24T01:37:18.943Z,7.43
2018-06-24T01:39:47.451Z,6.03
2018-06-24T01:42:15.682Z,5.20
2018-06-24T01:44:43.921Z,7.30
2018-06-24T01:47:12.193Z,6.67
2018-06-24T01:49:40.431Z,4.77
2018-06-24T01:52:08.772Z,5.27
2018-06-24T01:54:37.007Z,7.20
2018-06-24T01:57:05.357Z,6.03
2018-06-24T01:59:33.647Z,7.53
2018-06-24T02:02:01.924Z,7.97
2018-06-24T02:04:30.200Z,5.93
2018-06-24T02:06:58.428Z,5.13
2018-06-24T02:09:26.747Z,5.63
2018-06-24T02:11:55.039Z,4.47
2018-06-24T02:14:23.349Z,5.20
2018-06-24T02:16:52.126Z,5.20
2018-06-24T02:19:20.404Z,5.40
2018-06-24T02:21:48.392Z,5.83
2018-06-24T02:24:16.650Z,4.80
2018-06-24T02:26:44.909Z,6.00
2018-06-24T02:29:13.179Z,6.40
2018-06-24T02:31:41.200Z,4.13
2018-06-24T02:34:09.474Z,4.23
2018-06-24T02:36:37.704Z,4.47
2018-06-24T02:39:07.284Z,4.23
2018-06-24T02:41:35.512Z,4.03
2018-06-24T02:44:03.760Z,4.50
2018-06-24T02:46:32.007Z,3.57
2018-06-24T02:49:01.393Z,3.67
2018-06-24T02:51:29.852Z,4.30
2018-06-24T02:53:58.523Z,4.20
2018-06-24T02:56:27.630Z,5.00
2018-06-24T02:58:59.853Z,4.77
2018-06-24T03:01:29.958Z,5.93
2018-06-24T03:03:58.831Z,5.13
2018-06-24T03:06:27.060Z,4.67
2018-06-24T03:08:55.298Z,5.20
2018-06-24T03:11:24.016Z,7.33
2018-06-24T03:13:52.242Z,6.93
2018-06-24T03:16:20.541Z,4.93
2018-06-24T03:18:48.803Z,5.00
2018-06-24T03:21:17.054Z,8.33
2018-06-24T03:23:45.284Z,6.63
2018-06-24T03:26:13.536Z,8.40
2018-06-24T03:28:41.554Z,5.00
2018-06-24T03:31:11.564Z,4.90
2018-06-24T03:33:39.846Z,7.27
2018-06-24T03:36:08.130Z,6.33
2018-06-24T03:38:37.989Z,5.93
2018-06-24T03:41:06.445Z,7.10
2018-06-24T03:43:34.672Z,7.30
2018-06-24T03:46:02.970Z,6.77
2018-06-24T03:48:31.285Z,3.80
2018-06-24T03:50:59.531Z,6.93
2018-06-24T03:53:27.751Z,5.53
2018-06-24T03:55:56.003Z,7.07
2018-06-24T03:58:24.243Z,6.40
2018-06-24T04:00:52.545Z,4.23
2018-06-24T04:03:20.789Z,5.80
2018-06-24T04:05:49.028Z,7.40
2018-06-24T04:08:17.243Z,8.63
2018-06-24T04:10:45.521Z,5.43
2018-06-24T04:13:13.752Z,7.37
2018-06-24T04:15:42.089Z,7.63
2018-06-24T04:18:10.308Z,9.67
2018-06-24T04:20:38.551Z,7.40
2018-06-24T04:23:06.799Z,6.83
2018-06-24T04:25:35.077Z,7.73
2018-06-24T04:28:03.311Z,10.43
2018-06-24T04:30:31.553Z,12.97
2018-06-24T04:32:59.825Z,12.97
2018-06-24T04:35:28.113Z,11.70
2018-06-24T04:37:56.353Z,14.93
2018-06-24T04:40:24.643Z,11.50
2018-06-24T04:42:52.936Z,15.37
2018-06-24T04:45:20.926Z,13.77
2018-06-24T04:47:49.164Z,13.83
2018-06-24T04:50:17.409Z,12.07
2018-06-24T04:52:45.647Z,15.73
2018-06-24T04:55:13.865Z,14.50
2018-06-24T04:57:42.091Z,11.07
2018-06-24T05:00:10.359Z,12.57
2018-06-24T05:02:38.634Z,13.27
2018-06-24T05:05:07.196Z,14.57
2018-06-24T05:07:35.469Z,12.60
2018-06-24T05:10:03.836Z,13.10
2018-06-24T05:12:32.089Z,12.27
2018-06-24T05:15:00.315Z,11.90
2018-06-24T05:17:28.553Z,9.53
2018-06-24T05:19:56.780Z,10.93
2018-06-24T05:22:25.067Z,12.87
2018-06-24T05:24:53.291Z,12.70
2018-06-24T05:27:21.561Z,11.57
2018-06-24T05:29:49.838Z,12.43
2018-06-24T05:32:18.240Z,10.00
2018-06-24T05:34:46.476Z,11.27
2018-06-24T05:37:14.740Z,14.50
2018-06-24T05:39:42.965Z,15.83
2018-06-24T05:42:11.225Z,12.80
2018-06-24T05:44:39.267Z,16.67
2018-06-24T05:47:07.519Z,12.80
2018-06-24T05:49:35.740Z,9.90
2018-06-24T05:52:03.823Z,11.73
2018-06-24T05:54:32.043Z,10.57
2018-06-24T05:57:00.298Z,11.20
2018-06-24T05:59:28.601Z,12.40
2018-06-24T06:01:56.883Z,10.20
2018-06-24T06:04:25.248Z,13.30
2018-06-24T06:06:53.520Z,9.53
2018-06-24T06:09:21.781Z,13.73
2018-06-24T06:11:50.205Z,12.87
2018-06-24T06:14:18.478Z,11.30
2018-06-24T06:16:46.698Z,16.07
2018-06-24T06:19:14.978Z,13.67
2018-06-24T06:21:43.211Z,13.03
2018-06-24T06:24:11.604Z,11.17
2018-06-24T06:26:39.857Z,10.27
2018-06-24T06:29:07.953Z,10.63
2018-06-24T06:31:36.283Z,13.77
2018-06-24T06:34:04.554Z,14.63
2018-06-24T06:36:32.763Z,12.53
2018-06-24T06:39:01.036Z,13.70
2018-06-24T06:41:29.272Z,11.00
2018-06-24T06:43:57.574Z,11.23
2018-06-24T06:46:25.581Z,11.17
2018-06-24T06:48:53.873Z,6.73
2018-06-24T06:51:22.123Z,10.27
2018-06-24T06:53:50.400Z,13.67
2018-06-24T06:56:18.620Z,12.50
2018-06-24T06:58:46.875Z,9.83
2018-06-24T07:01:15.087Z,8.93
2018-06-24T07:03:43.355Z,12.53
2018-06-24T07:06:11.593Z,10.90
2018-06-24T07:08:39.817Z,13.47
2018-06-24T07:11:07.841Z,12.50
2018-06-24T07:13:36.092Z,8.40
2018-06-24T07:16:04.420Z,10.10
2018-06-24T07:18:32.615Z,9.10
2018-06-24T07:21:00.868Z,9.40
2018-06-24T07:23:29.088Z,13.33
2018-06-24T07:25:57.803Z,9.87
2018-06-24T07:28:26.096Z,9.63
2018-06-24T07:30:54.582Z,8.80
2018-06-24T07:33:22.918Z,8.23
2018-06-24T07:35:51.211Z,10.07
2018-06-24T07:38:19.388Z,7.13
2018-06-24T07:40:47.617Z,6.87
2018-06-24T07:43:15.828Z,10.43
2018-06-24T07:45:44.060Z,4.43
2018-06-24T07:48:12.274Z,6.00
2018-06-24T07:50:40.542Z,6.07
2018-06-24T07:53:08.759Z,7.77
2018-06-24T07:55:36.796Z,5.60
2018-06-24T07:58:05.283Z,4.73
2018-06-24T08:00:33.602Z,6.07
2018-06-24T08:03:01.822Z,6.37
2018-06-24T08:05:30.095Z,9.30
2018-06-24T08:07:58.455Z,7.40
2018-06-24T08:10:26.706Z,6.97
2018-06-24T08:12:55.237Z,5.27
2018-06-24T08:15:23.646Z,4.67
2018-06-24T08:17:52.038Z,8.70
2018-06-24T08:20:20.283Z,8.27
2018-06-24T08:22:48.521Z,5.73
2018-06-24T08:25:16.773Z,6.90
2018-06-24T08:27:44.991Z,6.63
2018-06-24T08:30:13.336Z,4.87
2018-06-24T08:32:41.565Z,5.30
2018-06-24T08:35:09.547Z,5.73
2018-06-24T08:37:37.804Z,6.23
2018-06-24T08:40:06.109Z,6.83
2018-06-24T08:42:34.431Z,6.60
2018-06-24T08:45:02.672Z,4.77
2018-06-24T08:47:30.908Z,4.73
2018-06-24T08:49:58.896Z,4.50
2018-06-24T08:52:27.128Z,4.23
2018-06-24T08:54:55.326Z,6.27
2018-06-24T08:57:23.651Z,5.03
2018-06-24T08:59:51.888Z,5.50
2018-06-24T09:02:20.118Z,5.47
2018-06-24T09:04:48.398Z,4.57
2018-06-24T09:07:16.664Z,5.13
2018-06-24T09:09:44.956Z,5.23
2018-06-24T09:12:13.204Z,6.10
2018-06-24T09:14:41.445Z,4.23
2018-06-24T09:17:09.727Z,3.00
2018-06-24T09:19:37.967Z,3.50
2018-06-24T09:22:06.258Z,3.30
2018-06-24T09:24:34.609Z,3.07
2018-06-24T09:27:02.949Z,3.40
2018-06-24T09:29:31.188Z,2.90
2018-06-24T09:31:59.399Z,5.43
2018-06-24T09:34:27.684Z,3.57
2018-06-24T09:36:55.983Z,3.70
2018-06-24T09:39:24.345Z,3.90
2018-06-24T09:41:52.601Z,3.23
2018-06-24T09:44:20.888Z,3.10
2018-06-24T09:46:49.115Z,4.70
2018-06-24T09:49:17.377Z,5.03
2018-06-24T09:51:45.671Z,4.20
2018-06-24T09:54:14.091Z,4.20
2018-06-24T09:56:42.365Z,6.10
2018-06-24T09:59:10.656Z,4.17
2018-06-24T10:01:38.933Z,4.90
2018-06-24T10:04:07.407Z,6.53
2018-06-24T10:06:36.237Z,4.87
2018-06-24T10:09:07.951Z,4.37
2018-06-24T10:11:36.272Z,5.07
2018-06-24T10:14:04.678Z,6.00
2018-06-24T10:16:32.980Z,5.10
2018-06-24T10:19:01.255Z,8.07
2018-06-24T10:21:29.527Z,4.67
2018-06-24T10:23:57.872Z,7.83
2018-06-24T10:26:26.164Z,5.40
2018-06-24T10:28:54.444Z,5.23
2018-06-24T10:31:22.671Z,4.27
2018-06-24T10:33:50.924Z,4.97
2018-06-24T10:36:20.356Z,4.53
2018-06-24T10:38:48.606Z,5.47
2018-06-24T10:41:16.878Z,4.60
2018-06-24T10:43:45.188Z,4.90
2018-06-24T10:46:13.456Z,4.37
2018-06-24T10:48:41.815Z,5.47
2018-06-24T10:51:10.049Z,5.83
2018-06-24T10:53:38.366Z,4.53
2018-06-24T10:56:07.136Z,12.30
2018-06-24T10:58:35.397Z,5.87
2018-06-24T11:01:03.646Z,5.27
2018-06-24T11:03:31.867Z,6.30
2018-06-24T11:06:00.136Z,7.10
2018-06-24T11:08:29.317Z,5.67
2018-06-24T11:10:57.592Z,6.73
2018-06-24T11:13:25.881Z,5.70
2018-06-24T11:15:54.111Z,4.50
2018-06-24T11:18:22.328Z,5.30
2018-06-24T11:20:50.604Z,7.60
2018-06-24T11:23:18.826Z,6.17
2018-06-24T11:25:47.099Z,4.67
2018-06-24T11:28:15.318Z,5.93
2018-06-24T11:30:43.562Z,4.67
2018-06-24T11:33:11.803Z,6.47
2018-06-24T11:35:40.063Z,4.93
2018-06-24T11:38:08.291Z,3.83
2018-06-24T11:40:36.591Z,4.07
2018-06-24T11:43:04.854Z,4.70
2018-06-24T11:45:33.096Z,4.33
2018-06-24T11:48:01.381Z,3.70
2018-06-24T11:50:29.639Z,4.33
2018-06-24T11:52:57.916Z,4.50
2018-06-24T11:55:26.158Z,4.37
2018-06-24T11:57:54.396Z,3.30
2018-06-24T12:00:22.696Z,3.30
2018-06-24T12:02:50.943Z,4.43
2018-06-24T12:05:19.207Z,4.20
2018-06-24T12:07:47.497Z,3.53
2018-06-24T12:10:15.845Z,4.57
2018-06-24T12:12:44.091Z,4.40
2018-06-24T12:15:12.357Z,5.03
2018-06-24T12:17:40.608Z,5.20
2018-06-24T12:20:08.928Z,31.23
2018-06-24T12:22:37.160Z,4.10
2018-06-24T12:25:05.444Z,4.23
2018-06-24T12:27:33.843Z,4.07
2018-06-24T12:30:02.054Z,3.77
2018-06-24T12:32:30.323Z,4.20
2018-06-24T12:34:58.561Z,4.43
2018-06-24T12:37:26.596Z,3.70
2018-06-24T12:39:55.016Z,2.73
2018-06-24T12:42:23.367Z,2.90
2018-06-24T12:44:51.616Z,4.50
2018-06-24T12:47:19.889Z,3.10
2018-06-24T12:49:48.113Z,4.17
2018-06-24T12:52:16.354Z,2.57
2018-06-24T12:54:44.567Z,3.30
2018-06-24T12:57:12.792Z,2.77
2018-06-24T12:59:41.367Z,2.77
2018-06-24T13:02:09.261Z,2.90
2018-06-24T13:04:37.556Z,3.87
2018-06-24T13:07:05.919Z,3.63
2018-06-24T13:09:34.214Z,3.33
2018-06-24T13:12:02.494Z,3.67
2018-06-24T13:14:30.728Z,4.33
2018-06-24T13:16:58.976Z,3.10
2018-06-24T13:19:27.352Z,3.27
2018-06-24T13:21:55.611Z,3.50
2018-06-24T13:24:23.844Z,3.10
2018-06-24T13:26:52.190Z,3.70
2018-06-24T13:29:20.491Z,3.30
2018-06-24T13:31:49.359Z,3.60
2018-06-24T13:34:17.624Z,2.50
2018-06-24T13:36:45.851Z,3.77
2018-06-24T13:39:14.138Z,2.80
2018-06-24T13:41:42.403Z,3.00
2018-06-24T13:44:10.656Z,4.30
2018-06-24T13:46:38.698Z,3.70
2018-06-24T13:49:06.944Z,3.40
2018-06-24T13:51:35.183Z,4.63
2018-06-24T13:54:03.198Z,5.10
2018-06-24T13:56:31.427Z,30.83
2018-06-24T13:58:59.691Z,14.87
2018-06-24T14:01:27.680Z,13.77
2018-06-24T14:03:56.089Z,7.43
2018-06-24T14:06:24.272Z,5.33
2018-06-24T14:08:52.545Z,7.00
2018-06-24T14:11:20.808Z,4.77
2018-06-24T14:13:49.038Z,5.47
2018-06-24T14:16:17.036Z,7.03
2018-06-24T14:18:45.292Z,6.80
2018-06-24T14:21:13.745Z,7.93
2018-06-24T14:23:42.080Z,4.97
2018-06-24T14:26:10.295Z,5.93
2018-06-24T14:28:38.676Z,5.10
2018-06-24T14:31:06.954Z,5.17
2018-06-24T14:33:35.354Z,6.23
2018-06-24T14:36:03.612Z,4.63
2018-06-24T14:38:31.853Z,4.23
2018-06-24T14:41:00.157Z,4.50
2018-06-24T14:43:28.685Z,4.70
2018-06-24T14:45:56.967Z,5.80
2018-06-24T14:48:25.237Z,4.20
2018-06-24T14:50:53.527Z,6.70
2018-06-24T14:53:22.523Z,5.57
2018-06-24T14:55:50.801Z,3.03
2018-06-24T14:58:19.205Z,3.87
2018-06-24T15:00:47.232Z,4.90
2018-06-24T15:03:16.578Z,3.37
2018-06-24T15:05:44.836Z,5.33
2018-06-24T15:08:13.437Z,3.23
2018-06-24T15:10:41.762Z,4.50
2018-06-24T15:13:10.031Z,4.70
2018-06-24T15:15:38.360Z,3.20
2018-06-24T15:18:06.872Z,3.50
2018-06-24T15:20:35.394Z,5.03
2018-06-24T15:23:03.742Z,4.40
2018-06-24T15:25:32.058Z,4.63
2018-06-24T15:28:00.423Z,4.80
2018-06-24T15:30:28.719Z,4.53
2018-06-24T15:32:56.742Z,3.43
2018-06-24T15:35:25.032Z,3.93
2018-06-24T15:37:53.293Z,3.90
2018-06-24T15:40:21.555Z,3.20
2018-06-24T15:42:49.788Z,3.77
2018-06-24T15:45:18.028Z,4.57
2018-06-24T15:47:46.293Z,4.03
2018-06-24T15:50:14.949Z,3.80
2018-06-24T15:52:43.214Z,4.83
2018-06-24T15:55:11.220Z,5.17
2018-06-24T15:57:39.475Z,4.43
2018-06-24T16:00:07.777Z,5.57
2018-06-24T16:02:36.015Z,4.83
2018-06-24T16:05:04.445Z,5.40
2018-06-24T16:07:32.718Z,4.53
2018-06-24T16:10:00.992Z,5.63
2018-06-24T16:12:29.392Z,6.40
2018-06-24T16:14:57.671Z,4.30
2018-06-24T16:17:25.947Z,4.60
2018-06-24T16:19:54.223Z,9.50
2018-06-24T16:22:22.476Z,5.77
2018-06-24T16:24:50.748Z,5.77
2018-06-24T16:27:18.990Z,4.10
2018-06-24T16:29:47.344Z,5.17
2018-06-24T16:32:15.384Z,6.20
2018-06-24T16:34:43.599Z,3.97
2018-06-24T16:37:11.840Z,4.10
2018-06-24T16:39:39.858Z,5.10
2018-06-24T16:42:08.196Z,3.60
2018-06-24T16:44:36.630Z,4.57
2018-06-24T16:47:05.040Z,6.83
2018-06-24T16:49:33.462Z,4.07
2018-06-24T16:52:01.699Z,4.20
2018-06-24T16:54:29.919Z,4.60
2018-06-24T16:56:58.231Z,4.73
2018-06-24T16:59:26.465Z,6.03
2018-06-24T17:01:54.679Z,4.30
2018-06-24T17:04:22.996Z,5.63
2018-06-24T17:06:51.295Z,7.60
2018-06-24T17:09:19.581Z,6.63
2018-06-24T17:11:47.955Z,5.20
2018-06-24T17:14:16.176Z,4.27
2018-06-24T17:16:44.412Z,5.23
2018-06-24T17:19:12.647Z,7.07
2018-06-24T17:21:40.657Z,5.23
2018-06-24T17:24:08.896Z,5.70
2018-06-24T17:26:37.162Z,7.23
2018-06-24T17:29:05.371Z,4.63
2018-06-24T17:31:33.632Z,6.60
2018-06-24T17:34:01.858Z,7.57
2018-06-24T17:36:30.169Z,4.50
2018-06-24T17:38:58.390Z,5.93
2018-06-24T17:41:26.626Z,7.40
2018-06-24T17:43:54.861Z,4.50
2018-06-24T17:46:23.108Z,6.17
2018-06-24T17:48:51.377Z,8.43
2018-06-24T17:51:19.640Z,7.63
2018-06-24T17:53:47.863Z,6.07
2018-06-24T17:56:15.842Z,5.33
2018-06-24T17:58:44.085Z,5.40
2018-06-24T18:01:12.300Z,7.20
2018-06-24T18:03:40.543Z,6.97
2018-06-24T18:06:08.785Z,8.47
2018-06-24T18:08:37.084Z,8.37
2018-06-24T18:11:05.386Z,5.90
2018-06-24T18:13:33.583Z,6.33
2018-06-24T18:16:01.800Z,7.50
2018-06-24T18:18:30.151Z,12.27
2018-06-24T18:20:58.364Z,11.10
2018-06-24T18:23:26.612Z,31.57
2018-06-24T18:25:54.811Z,10.73
2018-06-24T18:28:23.113Z,6.57
2018-06-24T18:30:51.344Z,6.17
2018-06-24T18:33:19.627Z,5.47
2018-06-24T18:35:47.908Z,6.23
2018-06-24T18:38:16.136Z,8.60
2018-06-24T18:40:44.406Z,5.07
2018-06-24T18:43:12.666Z,6.87
2018-06-24T18:45:40.896Z,6.90
2018-06-24T18:48:09.208Z,5.67
2018-06-24T18:50:37.474Z,5.37
2018-06-24T18:53:05.733Z,5.70
2018-06-24T18:55:34.089Z,5.97
2018-06-24T18:58:02.356Z,6.50
2018-06-24T19:00:30.596Z,5.90
2018-06-24T19:02:58.864Z,7.47
2018-06-24T19:05:27.131Z,5.67
2018-06-24T19:07:55.340Z,5.50
2018-06-24T19:10:23.603Z,5.37
2018-06-24T19:12:51.816Z,6.93
2018-06-24T19:15:20.070Z,5.70
2018-06-24T19:17:48.361Z,5.37
2018-06-24T19:20:16.592Z,8.47
2018-06-24T19:22:44.855Z,7.27
2018-06-24T19:25:13.118Z,6.53
2018-06-24T19:27:41.349Z,5.67
2018-06-24T19:30:09.700Z,6.87
2018-06-24T19:32:37.978Z,6.90
2018-06-24T19:35:06.259Z,6.33
2018-06-24T19:37:34.451Z,6.40
2018-06-24T19:40:02.676Z,6.90
2018-06-24T19:42:30.929Z,6.90
2018-06-24T19:44:58.989Z,6.60
2018-06-24T19:47:27.215Z,6.60
2018-06-24T19:49:55.512Z,5.10
2018-06-24T19:52:23.721Z,5.87
2018-06-24T19:54:51.997Z,6.73
2018-06-24T19:57:20.235Z,6.13
2018-06-24T19:59:48.467Z,6.17
2018-06-24T20:02:16.765Z,6.50
2018-06-24T20:04:45.002Z,5.80
2018-06-24T20:07:13.334Z,6.07
2018-06-24T20:09:41.569Z,5.23
2018-06-24T20:12:09.801Z,5.37
2018-06-24T20:14:38.034Z,5.30
2018-06-24T20:17:06.339Z,6.57
2018-06-24T20:19:34.599Z,6.50
2018-06-24T20:22:02.840Z,6.97
2018-06-24T20:24:31.069Z,9.07
2018-06-24T20:26:59.312Z,6.73
2018-06-24T20:29:27.628Z,5.93
2018-06-24T20:31:55.886Z,6.97
2018-06-24T20:34:24.115Z,5.47
2018-06-24T20:36:52.397Z,5.50
2018-06-24T20:39:20.666Z,5.37
2018-06-24T20:41:48.898Z,5.60
2018-06-24T20:44:17.110Z,5.70
2018-06-24T20:46:45.375Z,5.30
2018-06-24T20:49:13.588Z,5.50
2018-06-24T20:51:41.916Z,5.83
2018-06-24T20:54:10.688Z,5.43
2018-06-24T20:56:38.969Z,6.47
2018-06-24T20:59:07.252Z,6.27
2018-06-24T21:01:35.284Z,6.67
2018-06-24T21:04:03.616Z,5.90
2018-06-24T21:06:31.878Z,7.27
2018-06-24T21:09:00.227Z,6.60
2018-06-24T21:11:28.577Z,7.17
2018-06-24T21:13:56.835Z,5.23
2018-06-24T21:16:25.170Z,7.70
2018-06-24T21:18:53.476Z,6.57
2018-06-24T21:21:21.811Z,6.27
2018-06-24T21:23:50.054Z,5.93
2018-06-24T21:26:18.277Z,6.23
2018-06-24T21:28:46.520Z,5.50
2018-06-24T21:31:14.746Z,6.17
2018-06-24T21:33:43.010Z,6.10
2018-06-24T21:36:11.238Z,6.57
2018-06-24T21:38:39.491Z,6.97
2018-06-24T21:41:07.879Z,5.77
2018-06-24T21:43:36.171Z,7.30
2018-06-24T21:46:04.418Z,6.73
2018-06-24T21:48:32.651Z,6.70
2018-06-24T21:51:00.651Z,7.10
2018-06-24T21:53:28.909Z,8.57
2018-06-24T21:55:57.169Z,8.50
2018-06-24T21:58:25.427Z,6.20
2018-06-24T22:00:54.221Z,6.90
2018-06-24T22:03:22.220Z,6.43
2018-06-24T22:05:50.442Z,6.40
2018-06-24T22:08:18.724Z,8.63
2018-06-24T22:10:46.955Z,6.63
2018-06-24T22:13:15.195Z,6.23
2018-06-24T22:15:43.223Z,6.47
2018-06-24T22:18:11.480Z,6.70
2018-06-24T22:20:39.691Z,6.40
2018-06-24T22:23:07.945Z,6.40
2018-06-24T22:25:36.169Z,9.40
2018-06-24T22:28:04.316Z,7.13
2018-06-24T22:30:32.572Z,6.23
2018-06-24T22:33:00.802Z,7.60
2018-06-24T22:35:29.294Z,7.83
2018-06-24T22:37:58.942Z,6.90
2018-06-24T22:40:27.199Z,6.87
2018-06-24T22:42:55.452Z,7.60
2018-06-24T22:45:23.702Z,7.77
2018-06-24T22:47:51.948Z,7.57
2018-06-24T22:50:20.210Z,7.50
2018-06-24T22:52:48.477Z,6.97
2018-06-24T22:55:16.758Z,7.13
2018-06-24T22:57:45.801Z,7.40
2018-06-24T23:00:16.566Z,6.77
2018-06-24T23:02:45.376Z,7.47
2018-06-24T23:05:14.088Z,7.90
2018-06-24T23:07:43.352Z,7.57
2018-06-24T23:10:12.105Z,7.40
2018-06-24T23:12:40.380Z,8.07
2018-06-24T23:15:09.758Z,8.17
2018-06-24T23:17:38.118Z,6.97
2018-06-24T23:20:07.123Z,7.30
2018-06-24T23:22:35.456Z,8.27
2018-06-24T23:25:03.672Z,9.37
2018-06-24T23:27:31.889Z,8.47
2018-06-24T23:30:00.241Z,6.93
2018-06-24T23:32:28.479Z,7.97
2018-06-24T23:34:56.495Z,8.33
2018-06-24T23:37:24.724Z,8.33
2018-06-24T23:39:52.951Z,8.30
2018-06-24T23:42:21.196Z,8.67
2018-06-24T23:44:49.423Z,9.03
2018-06-24T23:47:17.647Z,7.87
2018-06-24T23:49:45.912Z,8.33
2018-06-24T23:52:14.157Z,8.40
2018-06-24T23:54:42.426Z,8.30
2018-06-24T23:57:10.713Z,9.27
2018-06-24T23:59:38.961Z,7.97
